Time;durP1;ratioP1;P1;durP2;ratioP2;P2;SDS_P1;SDS_P2;PMS_P1;PMS_P2;Temp;Humidity;BMP_temperature;BMP_pressure;BME280_temperature;BME280_humidity;BME280_pressure;Samples;Min_cycle;Max_cycle;Signal;HPM_P1;HPM_P2
2022/05/04 00:01:08;;;;;;;12.45;3.67;;;;;;;;;;5009982;28;20484;-63
2022/05/04 00:03:39;;;;;;;9.70;3.20;;;;;;;;;;5003446;28;20038;-63
2022/05/04 00:06:05;;;;;;;10.98;4.13;;;;;;;;;;5003109;28;20046;-63
2022/05/04 00:08:31;;;;;;;10.18;3.88;;;;;;;;;;5011785;28;20038;-63
2022/05/04 00:10:57;;;;;;;13.10;4.00;;;;;;;;;;5003961;28;20382;-63
2022/05/04 00:13:23;;;;;;;12.30;3.42;;;;;;;;;;5000206;28;20077;-63
2022/05/04 00:15:49;;;;;;;10.05;3.05;;;;;;;;;;5010146;28;20514;-63
2022/05/04 00:18:15;;;;;;;9.63;3.80;;;;;;;;;;5008023;28;20038;-63
2022/05/04 00:20:41;;;;;;;8.73;3.08;;;;;;;;;;5004309;28;20463;-63
2022/05/04 00:23:07;;;;;;;13.50;3.28;;;;;;;;;;5013071;28;20037;-63
2022/05/04 00:25:33;;;;;;;10.98;3.63;;;;;;;;;;5013687;28;20440;-63
2022/05/04 00:28:00;;;;;;;11.18;3.15;;;;;;;;;;5005569;28;20034;-63
2022/05/04 00:30:26;;;;;;;9.25;3.55;;;;;;;;;;5007476;28;20076;-63
2022/05/04 00:32:52;;;;;;;15.20;4.00;;;;;;;;;;5013389;28;20440;-63
2022/05/04 00:35:18;;;;;;;11.45;3.53;;;;;;;;;;5003958;28;20072;-63
2022/05/04 00:37:44;;;;;;;12.90;3.75;;;;;;;;;;4997867;28;20408;-64
2022/05/04 00:40:10;;;;;;;9.07;3.10;;;;;;;;;;5006023;28;20070;-64
2022/05/04 00:42:36;;;;;;;12.32;3.58;;;;;;;;;;5006350;28;20038;-63
2022/05/04 00:45:02;;;;;;;11.68;3.53;;;;;;;;;;5013910;28;20092;-63
2022/05/04 00:47:28;;;;;;;12.27;3.53;;;;;;;;;;5001504;28;20049;-63
2022/05/04 00:49:54;;;;;;;8.13;3.20;;;;;;;;;;5003346;28;20116;-63
2022/05/04 00:52:20;;;;;;;13.20;3.00;;;;;;;;;;5011775;28;20466;-63
2022/05/04 00:54:48;;;;;;;10.13;3.20;;;;;;;;;;5000352;28;20080;-63
2022/05/04 00:57:15;;;;;;;12.40;3.50;;;;;;;;;;5010752;28;20042;-63
2022/05/04 00:59:41;;;;;;;11.93;3.50;;;;;;;;;;5013034;28;20079;-63
2022/05/04 01:02:07;;;;;;;10.52;3.28;;;;;;;;;;4996998;28;20056;-63
2022/05/04 01:04:34;;;;;;;11.75;3.22;;;;;;;;;;5009118;28;20064;-63
2022/05/04 01:07:00;;;;;;;13.80;3.47;;;;;;;;;;5003396;28;20495;-63
2022/05/04 01:09:26;;;;;;;13.10;3.50;;;;;;;;;;5003659;28;20036;-63
2022/05/04 01:11:52;;;;;;;11.27;3.75;;;;;;;;;;5001340;28;20056;-63
2022/05/04 01:14:18;;;;;;;7.82;2.83;;;;;;;;;;5000299;28;20034;-63
2022/05/04 01:16:45;;;;;;;10.93;3.85;;;;;;;;;;4998081;28;20531;-63
2022/05/04 01:19:12;;;;;;;10.70;4.05;;;;;;;;;;5010806;28;20530;-63
2022/05/04 01:21:38;;;;;;;9.50;3.63;;;;;;;;;;5008840;28;20125;-63
2022/05/04 01:24:04;;;;;;;10.57;3.50;;;;;;;;;;5002920;28;20038;-63
2022/05/04 01:26:30;;;;;;;8.60;3.17;;;;;;;;;;5001517;28;20045;-63
2022/05/04 01:28:57;;;;;;;14.77;3.60;;;;;;;;;;5003173;28;20033;-63
2022/05/04 01:31:23;;;;;;;9.45;3.65;;;;;;;;;;5007966;28;20045;-63
2022/05/04 01:33:49;;;;;;;11.00;3.22;;;;;;;;;;5012477;28;20030;-64
2022/05/04 01:36:15;;;;;;;12.85;3.45;;;;;;;;;;5002439;28;20113;-63
2022/05/04 01:38:41;;;;;;;12.65;3.53;;;;;;;;;;5024655;23;20041;-63
2022/05/04 01:42:02;;;;;;;8.73;3.28;;;;;;;;;;5051364;28;20037;-63
2022/05/04 01:43:53;;;;;;;11.65;3.72;;;;;;;;;;5033075;28;20103;-63
2022/05/04 01:46:19;;;;;;;9.00;3.38;;;;;;;;;;5052925;28;20128;-63
2022/05/04 01:48:45;;;;;;;10.02;3.50;;;;;;;;;;5059674;28;20119;-63
2022/05/04 01:51:11;;;;;;;11.43;3.47;;;;;;;;;;5071900;28;20040;-63
2022/05/04 01:53:37;;;;;;;9.68;3.58;;;;;;;;;;5070593;28;20036;-63
2022/05/04 01:56:06;;;;;;;11.77;3.65;;;;;;;;;;5067698;28;20036;-63
2022/05/04 01:58:33;;;;;;;8.65;3.50;;;;;;;;;;5058979;28;20244;-63
2022/05/04 02:00:59;;;;;;;11.38;3.30;;;;;;;;;;5067692;28;20033;-63
2022/05/04 02:03:25;;;;;;;12.15;3.42;;;;;;;;;;5067627;28;20052;-63
2022/05/04 02:05:51;;;;;;;14.63;3.78;;;;;;;;;;5070820;28;20085;-63
2022/05/04 02:08:17;;;;;;;9.23;3.45;;;;;;;;;;5062810;28;20040;-63
2022/05/04 02:10:43;;;;;;;13.15;3.45;;;;;;;;;;5064254;28;20044;-63
2022/05/04 02:13:09;;;;;;;12.77;3.80;;;;;;;;;;5061160;28;20101;-63
2022/05/04 02:15:35;;;;;;;8.57;3.63;;;;;;;;;;5070095;28;20119;-63
2022/05/04 02:18:01;;;;;;;10.02;3.65;;;;;;;;;;5068021;28;20040;-63
2022/05/04 02:20:27;;;;;;;9.30;3.88;;;;;;;;;;5068814;28;20025;-63
2022/05/04 02:22:53;;;;;;;10.90;3.45;;;;;;;;;;5067990;28;20395;-63
2022/05/04 02:25:19;;;;;;;14.05;3.70;;;;;;;;;;5070493;28;20040;-63
2022/05/04 02:27:45;;;;;;;9.43;3.08;;;;;;;;;;5064895;28;20032;-63
2022/05/04 02:30:13;;;;;;;9.35;3.42;;;;;;;;;;5050189;28;20398;-63
2022/05/04 02:32:39;;;;;;;12.43;3.38;;;;;;;;;;5056374;28;20045;-63
2022/05/04 02:37:57;;;;;;;10.05;3.72;;;;;;;;;;5064281;28;20402;-63
2022/05/04 02:40:26;;;;;;;10.00;3.50;;;;;;;;;;5066739;28;20044;-63
2022/05/04 02:42:52;;;;;;;13.05;3.45;;;;;;;;;;5069225;28;20514;-63
2022/05/04 02:45:18;;;;;;;10.52;3.45;;;;;;;;;;5045442;28;20090;-63
2022/05/04 02:47:44;;;;;;;14.52;3.97;;;;;;;;;;5069788;28;20419;-63
2022/05/04 02:50:10;;;;;;;11.05;3.65;;;;;;;;;;5071949;28;20036;-63
2022/05/04 02:52:36;;;;;;;13.65;3.90;;;;;;;;;;5049244;28;20395;-63
2022/05/04 02:55:02;;;;;;;11.48;3.90;;;;;;;;;;5044903;28;20040;-63
2022/05/04 02:57:28;;;;;;;9.05;3.92;;;;;;;;;;5070232;28;20390;-63
2022/05/04 02:59:54;;;;;;;10.57;3.63;;;;;;;;;;5070753;28;20490;-63
2022/05/04 03:02:29;;;;;;;9.07;3.50;;;;;;;;;;5049199;28;20052;-63
2022/05/04 03:04:55;;;;;;;7.53;3.60;;;;;;;;;;5043619;28;20037;-63
2022/05/04 03:07:21;;;;;;;10.65;4.05;;;;;;;;;;5063756;28;20173;-63
2022/05/04 03:09:47;;;;;;;12.35;3.63;;;;;;;;;;5044723;28;20032;-63
2022/05/04 03:12:13;;;;;;;10.23;3.78;;;;;;;;;;5035844;28;20044;-63
2022/05/04 03:14:39;;;;;;;10.98;4.00;;;;;;;;;;5056640;28;20040;-63
2022/05/04 03:17:05;;;;;;;8.65;3.90;;;;;;;;;;5060456;28;20037;-63
2022/05/04 03:19:31;;;;;;;11.02;3.60;;;;;;;;;;5063212;28;20120;-63
2022/05/04 03:21:57;;;;;;;9.27;3.47;;;;;;;;;;5070732;28;20731;-63
2022/05/04 03:24:23;;;;;;;14.10;3.80;;;;;;;;;;5062320;28;20044;-63
2022/05/04 03:26:49;;;;;;;10.98;3.55;;;;;;;;;;5064000;28;20394;-63
2022/05/04 03:29:16;;;;;;;10.52;4.20;;;;;;;;;;5064830;28;20078;-63
2022/05/04 03:31:42;;;;;;;11.38;3.75;;;;;;;;;;5060457;28;20136;-62
2022/05/04 03:34:08;;;;;;;11.60;3.90;;;;;;;;;;5071036;28;20068;-62
2022/05/04 03:36:37;;;;;;;11.15;3.60;;;;;;;;;;5069014;28;20032;-62
2022/05/04 03:39:03;;;;;;;9.85;3.40;;;;;;;;;;5070711;28;20067;-62
2022/05/04 03:41:29;;;;;;;8.57;3.17;;;;;;;;;;5061921;28;20054;-62
2022/05/04 03:43:56;;;;;;;9.82;3.60;;;;;;;;;;5070482;28;20037;-62
2022/05/04 03:46:26;;;;;;;10.13;3.38;;;;;;;;;;5066151;28;20040;-62
2022/05/04 03:48:53;;;;;;;9.23;3.78;;;;;;;;;;5059742;28;20040;-62
2022/05/04 03:51:20;;;;;;;8.00;3.78;;;;;;;;;;5064465;28;20097;-62
2022/05/04 03:53:46;;;;;;;12.23;3.97;;;;;;;;;;5061208;28;20044;-62
2022/05/04 03:56:12;;;;;;;6.55;3.40;;;;;;;;;;5050884;28;20714;-62
2022/05/04 03:58:38;;;;;;;8.75;3.80;;;;;;;;;;5073197;28;20032;-62
2022/05/04 04:01:05;;;;;;;9.85;3.50;;;;;;;;;;5072243;28;20036;-62
2022/05/04 04:03:31;;;;;;;12.73;3.60;;;;;;;;;;5041905;28;20478;-62
2022/05/04 04:05:57;;;;;;;8.63;3.38;;;;;;;;;;5042935;28;20495;-62
2022/05/04 04:08:23;;;;;;;9.95;4.22;;;;;;;;;;5070284;28;20048;-62
2022/05/04 04:10:50;;;;;;;11.50;3.72;;;;;;;;;;5075099;28;20037;-62
2022/05/04 04:13:16;;;;;;;10.80;3.22;;;;;;;;;;5071769;28;20048;-62
2022/05/04 04:15:42;;;;;;;9.20;3.38;;;;;;;;;;5049803;28;20037;-62
2022/05/04 04:18:08;;;;;;;10.95;3.83;;;;;;;;;;5072718;28;20119;-62
2022/05/04 04:23:19;;;;;;;12.90;4.15;;;;;;;;;;5073438;28;20057;-62
2022/05/04 04:25:45;;;;;;;11.60;3.65;;;;;;;;;;5074507;28;20068;-62
2022/05/04 04:28:11;;;;;;;14.13;3.67;;;;;;;;;;5052388;28;20029;-62
2022/05/04 04:30:38;;;;;;;9.52;3.80;;;;;;;;;;5068696;28;20095;-62
2022/05/04 04:33:05;;;;;;;14.93;3.85;;;;;;;;;;5061077;28;20036;-62
2022/05/04 04:35:32;;;;;;;8.20;3.72;;;;;;;;;;5072016;28;20090;-62
2022/05/04 04:37:58;;;;;;;16.92;3.85;;;;;;;;;;5073195;28;20043;-62
2022/05/04 04:40:24;;;;;;;10.27;3.80;;;;;;;;;;5073628;28;20048;-62
2022/05/04 04:42:50;;;;;;;11.18;4.03;;;;;;;;;;5065180;28;20032;-62
2022/05/04 04:45:17;;;;;;;12.27;3.70;;;;;;;;;;5062417;28;20398;-62
2022/05/04 04:47:44;;;;;;;13.75;3.80;;;;;;;;;;5071704;28;20170;-62
2022/05/04 04:50:10;;;;;;;14.30;3.97;;;;;;;;;;5063419;28;20064;-62
2022/05/04 04:52:36;;;;;;;8.63;3.63;;;;;;;;;;5067084;28;20044;-62
2022/05/04 04:55:03;;;;;;;15.05;4.00;;;;;;;;;;5072569;28;20409;-62
2022/05/04 04:57:29;;;;;;;11.68;4.05;;;;;;;;;;5071462;28;20072;-62
2022/05/04 04:59:55;;;;;;;9.30;3.47;;;;;;;;;;5069092;28;20075;-62
2022/05/04 05:02:21;;;;;;;8.68;3.50;;;;;;;;;;5072502;28;20153;-62
2022/05/04 05:04:47;;;;;;;10.93;3.70;;;;;;;;;;5065595;28;20058;-62
2022/05/04 05:07:13;;;;;;;8.52;3.63;;;;;;;;;;5073986;28;20510;-62
2022/05/04 05:09:39;;;;;;;9.20;3.35;;;;;;;;;;5071897;28;20243;-62
2022/05/04 05:12:05;;;;;;;13.95;3.42;;;;;;;;;;5051702;28;20037;-62
2022/05/04 05:17:16;;;;;;;11.90;3.22;;;;;;;;;;5065636;28;20045;-62
2022/05/04 05:19:42;;;;;;;10.38;3.75;;;;;;;;;;5062829;28;20037;-62
2022/05/04 05:22:08;;;;;;;9.32;3.53;;;;;;;;;;5070240;28;20047;-62
2022/05/04 05:24:34;;;;;;;10.15;3.90;;;;;;;;;;5072347;28;20028;-62
2022/05/04 05:27:00;;;;;;;9.80;3.40;;;;;;;;;;5074090;28;20025;-62
2022/05/04 05:29:26;;;;;;;13.57;3.45;;;;;;;;;;5068181;28;20388;-62
2022/05/04 05:31:52;;;;;;;13.43;3.30;;;;;;;;;;5064479;28;20036;-62
2022/05/04 05:34:18;;;;;;;8.57;2.95;;;;;;;;;;5064121;28;20098;-62
2022/05/04 05:36:44;;;;;;;10.30;3.17;;;;;;;;;;5058866;28;20570;-62
2022/05/04 05:39:10;;;;;;;13.77;3.60;;;;;;;;;;5068220;28;20043;-62
2022/05/04 05:41:36;;;;;;;22.67;3.85;;;;;;;;;;5073118;28;20036;-62
2022/05/04 05:44:02;;;;;;;7.28;2.90;;;;;;;;;;5063722;28;20101;-62
2022/05/04 05:46:29;;;;;;;7.47;3.10;;;;;;;;;;5059679;28;20112;-62
2022/05/04 05:48:55;;;;;;;10.55;3.05;;;;;;;;;;5062914;28;20037;-62
2022/05/04 05:51:21;;;;;;;11.15;3.10;;;;;;;;;;5063908;28;20045;-62
2022/05/04 05:53:47;;;;;;;14.60;3.78;;;;;;;;;;5063661;28;20040;-62
2022/05/04 05:56:13;;;;;;;8.10;3.05;;;;;;;;;;5063699;28;20041;-63
2022/05/04 05:58:40;;;;;;;12.23;3.00;;;;;;;;;;5065527;28;20075;-63
2022/05/04 06:01:06;;;;;;;10.57;3.13;;;;;;;;;;5062552;28;20139;-63
2022/05/04 06:03:32;;;;;;;9.13;2.90;;;;;;;;;;5066603;28;20083;-62
2022/05/04 06:05:58;;;;;;;11.40;3.50;;;;;;;;;;5068882;28;20033;-63
2022/05/04 06:08:24;;;;;;;18.55;3.70;;;;;;;;;;5059769;28;20044;-62
2022/05/04 06:10:50;;;;;;;10.93;3.00;;;;;;;;;;5063430;28;20671;-58
2022/05/04 06:13:15;;;;;;;10.60;2.85;;;;;;;;;;5061456;28;20037;-58
2022/05/04 06:15:41;;;;;;;8.55;3.08;;;;;;;;;;5061073;28;20071;-58
2022/05/04 06:18:08;;;;;;;11.43;3.45;;;;;;;;;;5065514;28;20040;-58
2022/05/04 06:20:34;;;;;;;14.65;3.72;;;;;;;;;;5071366;28;20040;-58
2022/05/04 06:23:00;;;;;;;12.43;3.22;;;;;;;;;;5060888;28;20127;-58
2022/05/04 06:25:26;;;;;;;11.40;3.28;;;;;;;;;;5053114;28;20127;-58
2022/05/04 06:27:52;;;;;;;11.38;3.35;;;;;;;;;;5063906;28;20036;-58
2022/05/04 06:35:47;;;;;;;9.43;2.83;;;;;;;;;;5069161;28;20070;-58
2022/05/04 06:38:13;;;;;;;10.77;2.95;;;;;;;;;;5066121;28;20048;-59
2022/05/04 06:40:39;;;;;;;7.68;2.85;;;;;;;;;;5058647;28;20481;-58
2022/05/04 06:43:05;;;;;;;11.70;3.03;;;;;;;;;;5042118;28;20055;-58
2022/05/04 06:45:31;;;;;;;8.15;2.88;;;;;;;;;;5068873;28;20157;-58
2022/05/04 06:47:57;;;;;;;7.82;2.85;;;;;;;;;;5070408;28;20043;-59
2022/05/04 06:50:23;;;;;;;11.88;2.97;;;;;;;;;;5066014;28;20123;-58
2022/05/04 06:52:49;;;;;;;9.10;3.03;;;;;;;;;;5062183;28;20128;-58
2022/05/04 06:55:15;;;;;;;7.72;3.15;;;;;;;;;;5065557;28;20036;-58
2022/05/04 06:57:41;;;;;;;8.55;2.70;;;;;;;;;;5063703;28;20518;-58
2022/05/04 07:00:08;;;;;;;9.75;3.00;;;;;;;;;;5061582;28;20126;-58
2022/05/04 07:02:34;;;;;;;10.25;3.47;;;;;;;;;;5069957;28;20043;-58
2022/05/04 07:05:01;;;;;;;11.73;3.00;;;;;;;;;;5069639;28;20039;-58
2022/05/04 07:07:27;;;;;;;9.38;3.05;;;;;;;;;;5060168;28;20032;-58
2022/05/04 07:09:54;;;;;;;6.93;2.88;;;;;;;;;;5068598;28;20136;-58
2022/05/04 07:12:20;;;;;;;15.05;3.10;;;;;;;;;;5068490;28;20044;-58
2022/05/04 07:14:46;;;;;;;8.82;2.92;;;;;;;;;;5069694;28;20039;-59
2022/05/04 07:17:12;;;;;;;9.82;2.85;;;;;;;;;;5066796;28;20032;-58
2022/05/04 07:19:38;;;;;;;7.13;2.92;;;;;;;;;;5065079;28;20044;-58
2022/05/04 07:22:04;;;;;;;8.57;3.30;;;;;;;;;;5065710;28;20062;-58
2022/05/04 07:24:30;;;;;;;12.52;3.42;;;;;;;;;;5064775;28;20036;-58
2022/05/04 07:26:56;;;;;;;10.38;3.17;;;;;;;;;;5065222;28;20449;-58
2022/05/04 07:29:51;;;;;;;7.68;3.50;;;;;;;;;;5070129;28;20036;-58
2022/05/04 07:32:17;;;;;;;8.65;3.60;;;;;;;;;;5059188;28;20036;-58
2022/05/04 07:34:43;;;;;;;8.15;3.20;;;;;;;;;;5060750;28;20036;-58
2022/05/04 07:43:07;;;;;;;10.73;3.72;;;;;;;;;;5037607;28;20044;-60
2022/05/04 07:45:33;;;;;;;12.77;3.85;;;;;;;;;;5050661;28;20033;-60
2022/05/04 07:47:59;;;;;;;9.07;3.50;;;;;;;;;;5051312;28;20037;-60
2022/05/04 07:50:25;;;;;;;13.77;3.80;;;;;;;;;;5032405;28;20394;-60
2022/05/04 07:52:51;;;;;;;9.50;3.55;;;;;;;;;;5028815;28;20129;-59
2022/05/04 07:55:17;;;;;;;10.23;3.80;;;;;;;;;;5020496;28;20153;-59
2022/05/04 07:57:47;;;;;;;13.38;3.78;;;;;;;;;;5011750;28;20076;-60
2022/05/04 08:05:43;;;;;;;8.20;3.55;;;;;;;;;;5026797;28;20045;-60
2022/05/04 08:08:09;;;;;;;8.45;3.50;;;;;;;;;;5016707;28;20030;-60
2022/05/04 08:10:35;;;;;;;10.93;3.40;;;;;;;;;;5030104;28;20111;-59
2022/05/04 08:13:01;;;;;;;8.32;3.60;;;;;;;;;;5011852;28;20455;-59
2022/05/04 08:15:30;;;;;;;9.73;3.75;;;;;;;;;;5023727;28;20044;-59
2022/05/04 08:17:57;;;;;;;9.90;3.58;;;;;;;;;;5011139;28;20077;-60
2022/05/04 08:20:24;;;;;;;12.75;3.85;;;;;;;;;;5015609;28;20107;-59
2022/05/04 08:22:50;;;;;;;10.57;3.58;;;;;;;;;;5022480;28;20403;-60
2022/05/04 08:25:17;;;;;;;9.57;3.70;;;;;;;;;;5016444;28;20112;-60
2022/05/04 08:27:43;;;;;;;10.25;3.80;;;;;;;;;;5017357;28;20488;-60
2022/05/04 08:30:09;;;;;;;10.85;3.95;;;;;;;;;;5030134;28;20057;-60
2022/05/04 08:32:35;;;;;;;7.18;3.67;;;;;;;;;;5026948;28;20068;-60
2022/05/04 08:35:01;;;;;;;9.30;3.53;;;;;;;;;;5023813;28;20483;-60
2022/05/04 08:37:28;;;;;;;9.00;4.13;;;;;;;;;;5030987;28;20037;-60
2022/05/04 08:39:54;;;;;;;6.72;3.55;;;;;;;;;;5028438;28;20033;-60
2022/05/04 08:42:20;;;;;;;9.05;3.75;;;;;;;;;;5029376;28;20137;-60
2022/05/04 08:44:48;;;;;;;11.07;3.63;;;;;;;;;;5030578;28;20112;-60
2022/05/04 08:47:15;;;;;;;10.93;4.20;;;;;;;;;;5033182;28;20407;-60
2022/05/04 08:49:41;;;;;;;10.30;3.50;;;;;;;;;;5027135;28;20045;-60
2022/05/04 08:52:08;;;;;;;8.95;3.60;;;;;;;;;;5028076;28;20049;-60
2022/05/04 08:54:34;;;;;;;14.38;3.97;;;;;;;;;;5025378;28;20041;-60
2022/05/04 08:57:00;;;;;;;10.45;4.10;;;;;;;;;;5029982;28;20049;-60
2022/05/04 08:59:28;;;;;;;9.13;4.07;;;;;;;;;;5026836;28;20033;-60
2022/05/04 09:01:54;;;;;;;7.60;3.60;;;;;;;;;;5018355;28;20500;-60
2022/05/04 09:04:20;;;;;;;9.50;3.63;;;;;;;;;;5023809;28;20029;-60
2022/05/04 09:06:46;;;;;;;10.00;3.55;;;;;;;;;;5027642;28;20040;-60
2022/05/04 09:09:13;;;;;;;10.30;4.15;;;;;;;;;;5021031;28;20510;-60
2022/05/04 09:11:43;;;;;;;10.45;3.90;;;;;;;;;;5025026;28;20048;-60
2022/05/04 09:14:13;;;;;;;8.23;3.50;;;;;;;;;;5025180;28;20056;-60
2022/05/04 09:16:40;;;;;;;7.78;3.88;;;;;;;;;;5022389;28;20041;-60
2022/05/04 09:19:10;;;;;;;9.00;3.97;;;;;;;;;;5017761;28;20100;-61
2022/05/04 09:21:36;;;;;;;6.82;3.42;;;;;;;;;;5027483;28;20037;-60
2022/05/04 09:24:02;;;;;;;8.70;4.15;;;;;;;;;;5025280;28;20026;-60
2022/05/04 09:26:28;;;;;;;10.93;3.60;;;;;;;;;;5029978;28;20080;-60
2022/05/04 09:29:01;;;;;;;9.98;3.95;;;;;;;;;;5015202;28;20042;-60
2022/05/04 09:31:30;;;;;;;11.50;3.75;;;;;;;;;;5027599;28;20154;-60
2022/05/04 09:34:03;;;;;;;8.50;4.05;;;;;;;;;;5030869;28;20547;-60
2022/05/04 09:44:55;;;;;;;8.80;3.85;;;;;;;;;;5029477;28;20076;-60
2022/05/04 09:47:21;;;;;;;9.82;3.70;;;;;;;;;;5029704;28;20040;-60
2022/05/04 09:49:48;;;;;;;9.50;3.90;;;;;;;;;;5019100;28;20487;-61
2022/05/04 09:52:15;;;;;;;6.68;3.20;;;;;;;;;;5028547;28;20052;-61
2022/05/04 09:54:41;;;;;;;9.68;3.83;;;;;;;;;;5027956;28;20033;-60
2022/05/04 09:57:07;;;;;;;6.65;3.70;;;;;;;;;;5026400;28;20483;-60
2022/05/04 09:59:36;;;;;;;8.00;3.00;;;;;;;;;;5029985;28;20044;-61
2022/05/04 10:02:04;;;;;;;7.30;3.30;;;;;;;;;;5022210;28;20061;-60
2022/05/04 10:04:33;;;;;;;7.15;3.78;;;;;;;;;;5022764;28;20116;-60
2022/05/04 10:07:00;;;;;;;9.80;3.78;;;;;;;;;;5023491;28;20033;-61
2022/05/04 10:09:27;;;;;;;8.48;3.17;;;;;;;;;;5032783;28;20156;-60
2022/05/04 10:11:57;;;;;;;7.15;3.50;;;;;;;;;;5022816;28;20042;-60
2022/05/04 10:14:23;;;;;;;14.93;3.83;;;;;;;;;;5021713;28;20081;-60
2022/05/04 10:16:53;;;;;;;10.43;3.78;;;;;;;;;;5022906;28;20118;-61
2022/05/04 10:19:23;;;;;;;9.55;3.40;;;;;;;;;;5028033;28;20495;-60
2022/05/04 10:21:51;;;;;;;10.43;3.65;;;;;;;;;;5016500;28;20030;-60
2022/05/04 10:24:18;;;;;;;11.25;3.30;;;;;;;;;;5023688;28;20048;-60
2022/05/04 10:26:45;;;;;;;10.88;3.70;;;;;;;;;;5022530;28;20044;-60
2022/05/04 10:32:31;;;;;;;14.38;3.70;;;;;;;;;;5025876;28;20041;-60
2022/05/04 10:35:16;;;;;;;7.00;3.25;;;;;;;;;;5012739;28;20495;-60
2022/05/04 10:38:03;;;;;;;7.07;3.47;;;;;;;;;;5021544;28;20076;-60
2022/05/04 10:40:33;;;;;;;8.73;3.22;;;;;;;;;;5022745;28;20042;-60
2022/05/04 10:43:02;;;;;;;10.18;3.35;;;;;;;;;;5026905;28;20411;-60
2022/05/04 10:45:34;;;;;;;6.10;3.00;;;;;;;;;;5020929;28;20423;-60
2022/05/04 10:48:16;;;;;;;13.05;3.67;;;;;;;;;;5021313;28;20033;-60
2022/05/04 10:51:02;;;;;;;7.47;2.90;;;;;;;;;;5021732;28;20075;-61
2022/05/04 10:53:29;;;;;;;9.02;3.53;;;;;;;;;;5026602;28;20321;-60
2022/05/04 10:56:03;;;;;;;9.68;3.10;;;;;;;;;;5031386;28;20045;-60
2022/05/04 10:58:36;;;;;;;8.00;3.17;;;;;;;;;;5026246;28;20764;-61
2022/05/04 11:01:03;;;;;;;12.23;3.05;;;;;;;;;;5023916;28;20092;-60
2022/05/04 11:03:34;;;;;;;10.88;3.58;;;;;;;;;;5023424;28;20033;-60
2022/05/04 11:06:03;;;;;;;8.00;3.50;;;;;;;;;;5031468;28;20398;-60
2022/05/04 11:08:34;;;;;;;8.85;3.28;;;;;;;;;;5027513;28;20040;-60
2022/05/04 11:11:00;;;;;;;6.60;3.13;;;;;;;;;;5025355;28;20048;-60
2022/05/04 11:13:26;;;;;;;9.30;3.28;;;;;;;;;;5023044;28;20041;-61
2022/05/04 11:15:55;;;;;;;7.85;2.90;;;;;;;;;;5019259;28;20462;-60
2022/05/04 11:18:23;;;;;;;10.38;3.00;;;;;;;;;;5029590;28;20088;-60
2022/05/04 11:20:50;;;;;;;9.13;2.97;;;;;;;;;;5022535;28;20045;-61
2022/05/04 11:23:23;;;;;;;8.55;3.60;;;;;;;;;;5030090;28;20041;-61
2022/05/04 11:25:50;;;;;;;7.38;3.28;;;;;;;;;;5016873;28;20042;-60
2022/05/04 11:28:20;;;;;;;9.82;3.65;;;;;;;;;;5022912;28;20051;-61
2022/05/04 11:30:46;;;;;;;8.43;3.27;;;;;;;;;;5024569;28;20034;-61
2022/05/04 11:33:15;;;;;;;8.55;3.42;;;;;;;;;;5021087;28;20295;-60
2022/05/04 11:35:44;;;;;;;7.90;3.33;;;;;;;;;;5011378;28;20118;-60
2022/05/04 11:38:17;;;;;;;9.45;3.20;;;;;;;;;;5022130;28;20065;-60
2022/05/04 11:40:47;;;;;;;9.63;3.42;;;;;;;;;;5017953;28;20033;-61
2022/05/04 11:43:29;;;;;;;11.80;2.90;;;;;;;;;;5029014;28;20104;-61
2022/05/04 11:45:55;;;;;;;8.07;2.97;;;;;;;;;;5023612;28;20092;-61
2022/05/04 11:48:22;;;;;;;8.15;3.15;;;;;;;;;;5016398;28;20041;-61
2022/05/04 11:50:48;;;;;;;7.78;3.17;;;;;;;;;;5013167;28;20042;-61
2022/05/04 11:53:15;;;;;;;9.75;3.70;;;;;;;;;;5021950;28;20045;-60
2022/05/04 11:55:41;;;;;;;9.38;3.30;;;;;;;;;;5029884;28;20045;-61
2022/05/04 11:58:11;;;;;;;7.07;3.15;;;;;;;;;;5025743;28;20041;-61
2022/05/04 12:00:38;;;;;;;8.43;2.83;;;;;;;;;;5021738;28;20091;-61
2022/05/04 12:03:05;;;;;;;11.82;2.80;;;;;;;;;;5024973;28;20450;-61
2022/05/04 12:05:32;;;;;;;9.93;2.88;;;;;;;;;;5027317;28;20034;-60
2022/05/04 12:07:58;;;;;;;8.32;2.70;;;;;;;;;;5023151;28;20042;-61
2022/05/04 12:10:24;;;;;;;6.15;2.70;;;;;;;;;;5031725;28;20621;-60
2022/05/04 12:12:51;;;;;;;7.57;3.00;;;;;;;;;;5019652;28;20033;-61
2022/05/04 12:15:17;;;;;;;8.00;2.92;;;;;;;;;;5031880;28;20042;-60
2022/05/04 12:17:44;;;;;;;9.80;3.30;;;;;;;;;;5025421;28;20048;-60
2022/05/04 12:20:10;;;;;;;8.50;2.97;;;;;;;;;;5004383;28;20045;-60
2022/05/04 12:22:36;;;;;;;11.95;3.05;;;;;;;;;;5031120;28;20041;-60
2022/05/04 12:25:06;;;;;;;10.35;3.13;;;;;;;;;;5021966;28;20547;-60
2022/05/04 12:27:34;;;;;;;8.82;3.00;;;;;;;;;;5028819;28;20122;-60
2022/05/04 12:35:31;;;;;;;10.35;3.28;;;;;;;;;;5026492;28;20045;-60
2022/05/04 12:37:58;;;;;;;7.80;3.33;;;;;;;;;;5028957;28;20037;-60
2022/05/04 12:40:26;;;;;;;8.20;3.50;;;;;;;;;;5014537;28;20046;-61
2022/05/04 12:42:53;;;;;;;9.90;3.45;;;;;;;;;;5031731;28;20453;-61
2022/05/04 12:45:19;;;;;;;4.88;2.67;;;;;;;;;;5032391;28;20045;-60
2022/05/04 12:47:45;;;;;;;8.68;2.80;;;;;;;;;;5027316;28;20517;-60
2022/05/04 12:50:11;;;;;;;7.82;2.88;;;;;;;;;;5027042;28;20045;-60
2022/05/04 12:52:38;;;;;;;9.68;3.17;;;;;;;;;;5021006;28;20046;-61
2022/05/04 12:55:04;;;;;;;12.77;3.47;;;;;;;;;;5033024;28;20052;-60
2022/05/04 12:57:30;;;;;;;11.13;3.20;;;;;;;;;;5016501;28;20096;-60
2022/05/04 12:59:56;;;;;;;8.80;3.03;;;;;;;;;;5025406;28;20048;-60
2022/05/04 13:02:22;;;;;;;6.20;3.00;;;;;;;;;;5015112;28;20046;-60
2022/05/04 13:04:48;;;;;;;6.03;2.67;;;;;;;;;;5016352;28;20548;-60
2022/05/04 13:07:14;;;;;;;8.20;2.90;;;;;;;;;;5024409;28;20061;-60
2022/05/04 13:09:42;;;;;;;6.22;2.80;;;;;;;;;;5024374;28;20036;-60
2022/05/04 13:12:12;;;;;;;10.13;2.80;;;;;;;;;;5017678;28;20079;-60
2022/05/04 13:14:38;;;;;;;9.02;2.90;;;;;;;;;;5020818;28;20042;-60
2022/05/04 13:17:04;;;;;;;10.10;2.80;;;;;;;;;;5013851;28;20565;-60
2022/05/04 13:19:31;;;;;;;6.82;2.67;;;;;;;;;;5022676;28;20048;-60
2022/05/04 13:21:57;;;;;;;5.95;2.67;;;;;;;;;;5024205;28;20048;-60
2022/05/04 13:24:22;;;;;;;9.27;2.72;;;;;;;;;;5021772;28;20049;-60
2022/05/04 13:26:48;;;;;;;7.95;3.17;;;;;;;;;;5029718;28;20446;-60
2022/05/04 13:29:14;;;;;;;8.20;2.85;;;;;;;;;;5033138;28;20041;-60
2022/05/04 13:31:41;;;;;;;13.85;2.80;;;;;;;;;;5024891;28;20034;-61
2022/05/04 13:34:07;;;;;;;8.95;3.28;;;;;;;;;;5023797;28;20069;-61
2022/05/04 13:36:33;;;;;;;6.25;3.03;;;;;;;;;;5006697;28;20102;-61
2022/05/04 13:38:59;;;;;;;8.02;2.90;;;;;;;;;;5042198;22;20158;-59
2022/05/04 13:41:25;;;;;;;6.75;2.67;;;;;;;;;;5056201;28;20040;-59
2022/05/04 13:43:52;;;;;;;9.55;2.90;;;;;;;;;;5053085;28;20146;-60
2022/05/04 13:46:18;;;;;;;7.57;2.90;;;;;;;;;;5053525;28;20053;-59
2022/05/04 13:48:44;;;;;;;4.95;3.13;;;;;;;;;;5054351;28;20479;-59
2022/05/04 13:53:56;;;;;;;7.57;3.10;;;;;;;;;;5052663;28;20124;-59
2022/05/04 13:56:22;;;;;;;7.25;2.55;;;;;;;;;;5035402;28;20048;-60
2022/05/04 13:58:48;;;;;;;8.18;2.83;;;;;;;;;;5052680;28;20151;-59
2022/05/04 14:01:14;;;;;;;8.82;2.92;;;;;;;;;;5049174;28;20041;-59
2022/05/04 14:03:40;;;;;;;9.02;2.88;;;;;;;;;;5047124;28;20041;-59
2022/05/04 14:06:06;;;;;;;8.40;2.63;;;;;;;;;;5050393;28;20041;-59
2022/05/04 14:08:32;;;;;;;9.32;2.83;;;;;;;;;;5032889;28;20096;-60
2022/05/04 14:10:58;;;;;;;8.40;3.13;;;;;;;;;;5032459;28;20037;-59
2022/05/04 14:13:27;;;;;;;6.65;3.20;;;;;;;;;;5045837;28;20037;-59
2022/05/04 14:16:00;;;;;;;8.70;3.50;;;;;;;;;;5032998;28;20490;-59
2022/05/04 14:18:31;;;;;;;10.48;2.55;;;;;;;;;;5052964;28;20486;-59
2022/05/04 14:20:58;;;;;;;;;;;;;;;;;;5049309;28;20094;-60
2022/05/04 14:23:24;;;;;;;8.18;2.97;;;;;;;;;;5051904;28;20020;-60
2022/05/04 14:25:50;;;;;;;9.35;3.10;;;;;;;;;;5051363;28;20057;-59
2022/05/04 14:28:17;;;;;;;9.50;3.20;;;;;;;;;;5044702;28;20060;-59
2022/05/04 14:30:43;;;;;;;7.90;2.90;;;;;;;;;;5049763;28;20065;-60
2022/05/04 14:33:09;;;;;;;10.93;3.42;;;;;;;;;;5035515;28;20037;-59
2022/05/04 14:35:36;;;;;;;11.02;2.60;;;;;;;;;;5040343;28;20036;-60
2022/05/04 14:38:02;;;;;;;6.97;3.00;;;;;;;;;;5047640;28;20087;-59
2022/05/04 14:40:29;;;;;;;7.45;3.33;;;;;;;;;;5045645;28;20025;-59
2022/05/04 14:42:57;;;;;;;9.77;3.17;;;;;;;;;;5051717;28;20041;-59
2022/05/04 14:45:23;;;;;;;9.85;3.15;;;;;;;;;;5051006;28;20106;-59
2022/05/04 14:47:50;;;;;;;8.68;3.38;;;;;;;;;;5057458;28;20090;-59
2022/05/04 14:50:16;;;;;;;7.72;3.08;;;;;;;;;;5049161;28;20514;-59
2022/05/04 14:52:42;;;;;;;8.70;3.40;;;;;;;;;;5029004;28;20044;-59
2022/05/04 14:55:09;;;;;;;11.18;3.80;;;;;;;;;;5045746;28;20143;-59
2022/05/04 14:57:35;;;;;;;7.38;3.08;;;;;;;;;;5050267;28;20028;-59
2022/05/04 15:00:01;;;;;;;8.93;3.30;;;;;;;;;;5049496;28;20449;-59
2022/05/04 15:02:27;;;;;;;12.52;3.97;;;;;;;;;;5052018;28;20133;-59
2022/05/04 15:05:02;;;;;;;8.82;2.90;;;;;;;;;;5047683;28;20081;-59
2022/05/04 15:07:28;;;;;;;7.38;3.17;;;;;;;;;;5045942;28;20049;-59
2022/05/04 15:09:55;;;;;;;8.60;3.47;;;;;;;;;;5048987;28;20044;-59
2022/05/04 15:12:20;;;;;;;10.52;3.20;;;;;;;;;;5049793;28;20052;-59
2022/05/04 15:14:46;;;;;;;6.80;3.13;;;;;;;;;;5049420;28;20033;-59
2022/05/04 15:17:13;;;;;;;9.63;3.63;;;;;;;;;;5051352;28;20044;-59
2022/05/04 15:19:38;;;;;;;8.30;3.20;;;;;;;;;;5051425;28;20044;-59
2022/05/04 15:22:05;;;;;;;6.78;3.30;;;;;;;;;;5046665;28;20041;-59